Data for 01/04/2011

Time Sea-Level Adjusted Pressure Absolute Pressure Temperature Relative Humidity Dew Point   
(mb) (inHg) (mb) (inHg) (C) (F) (%) (C) (F)
00:05 1017 30.03 846 24.98 -10.7 12.8 78 -13.9 7
00:10 1017 30.03 846 24.98 -11 12.2 79 -13.9 6.9
00:15 1017 30.03 846 24.98 -11.1 12.1 80 -13.9 7
00:20 1017 30.03 846 24.98 -11 12.3 78 -14.1 6.7
00:25 1017 30.03 846 24.98 -11.3 11.7 79 -14.2 6.5
00:30 1017 30.03 846 24.98 -11.3 11.7 80 -14.1 6.6
00:35 1017 30.03 846 24.98 -11.1 12 78 -14.2 6.5
00:40 1017 30.03 846 24.98 -11.6 11.1 80 -14.4 6.1
00:45 1017 30.03 846 24.98 -11.8 10.8 80 -14.5 5.9
00:50 1016 30 846 24.98 -12 10.5 80 -14.7 5.6
00:55 1016 30 846 24.98 -12 10.4 81 -14.6 5.7
01:00 1016 30 846 24.98 -11.9 10.6 81 -14.6 5.7
01:05 1016 30 846 24.98 -11.5 11.3 80 -14.3 6.3
01:10 1016 30 846 24.98 -11.1 12 79 -14 6.8
01:15 1016 30 846 24.98 -11 12.2 78 -14.1 6.6
01:20 1016 30 846 24.98 -11.4 11.4 81 -14.1 6.6
01:25 1016 30 846 24.98 -11.5 11.4 80 -14.2 6.4
01:30 1016 30 846 24.98 -11.6 11 81 -14.3 6.3
01:35 1016 30 845 24.95 -11.7 11 81 -14.3 6.3
01:40 1016 30 845 24.95 -11.5 11.2 81 -14.2 6.4
01:45 1016 30 845 24.95 -11.4 11.6 81 -14 6.8
01:50 1016 30 845 24.95 -10.9 12.3 77 -14.2 6.5
01:55 1016 30 845 24.95 -11.4 11.5 78 -14.5 5.9
02:00 1016 30 845 24.95 -11.9 10.6 80 -14.7 5.5
02:05 1016 30 845 24.95 -12.2 10.1 82 -14.6 5.8
02:10 1016 30 845 24.95 -12.2 10.1 81 -14.8 5.3
02:15 1016 30 845 24.95 -12.4 9.7 84 -14.5 5.9
02:20 1016 30 845 24.95 -11.7 11 80 -14.5 5.9
02:25 1016 30 845 24.95 -11.7 11 82 -14.2 6.4
02:30 1016 30 846 24.98 -11.5 11.3 80 -14.3 6.2
02:35 1016 30 845 24.95 -11.7 10.9 82 -14.2 6.4
02:40 1016 30 845 24.95 -11.9 10.6 82 -14.5 6
02:45 1016 30 845 24.95 -12 10.4 82 -14.4 6
02:50 1016 30 846 24.98 -11.7 11 81 -14.4 6.1
02:55 1016 30 846 24.98 -11.6 11.2 80 -14.3 6.3
03:00 1016 30 846 24.98 -11.7 11 81 -14.3 6.3
03:05 1016 30 846 24.98 -11.9 10.6 82 -14.4 6.1
03:10 1016 30 846 24.98 -12 10.3 83 -14.3 6.2
03:15 1016 30 846 24.98 -12 10.3 82 -14.5 5.9
03:20 1016 30 846 24.98 -11.7 10.9 80 -14.5 5.9
03:25 1016 30 846 24.98 -11.6 11.2 80 -14.4 6.1
03:30 1016 30 846 24.98 -11.9 10.6 80 -14.7 5.6
03:35 1016 30 846 24.98 -12 10.4 81 -14.7 5.6
03:40 1016 30 846 24.98 -11.9 10.6 81 -14.5 5.9
03:45 1016 30 846 24.98 -11.6 11.1 80 -14.4 6.1
03:50 1016 30 846 24.98 -11 12.1 77 -14.3 6.3
03:55 1017 30.03 846 24.98 -11.5 11.3 78 -14.5 5.8
04:00 1017 30.03 846 24.98 -11.6 11 79 -14.7 5.6
04:05 1017 30.03 846 24.98 -11.8 10.9 79 -14.7 5.5
04:10 1016 30 846 24.98 -12 10.4 81 -14.7 5.6
04:15 1016 30 846 24.98 -12.5 9.5 81 -15.1 4.8
04:20 1017 30.03 846 24.98 -12.6 9.3 83 -14.9 5.2
04:25 1017 30.03 846 24.98 -12.2 10 82 -14.6 5.7
04:30 1017 30.03 846 24.98 -12.1 10.3 82 -14.5 5.9
04:35 1017 30.03 846 24.98 -12.1 10.3 83 -14.5 6
04:40 1017 30.03 846 24.98 -12.2 10.1 83 -14.4 6
04:45 1017 30.03 846 24.98 -12.2 10.1 82 -14.6 5.7
04:50 1017 30.03 846 24.98 -12.1 10.1 83 -14.5 5.9
04:55 1017 30.03 846 24.98 -12.3 10 84 -14.4 6.1
05:00 1016 30 846 24.98 -12.1 10.2 83 -14.4 6
05:05 1016 30 846 24.98 -12 10.4 83 -14.3 6.3
05:10 1016 30 846 24.98 -11.8 10.8 83 -14.2 6.5
05:15 1017 30.03 846 24.98 -11.6 11.1 83 -14 6.8
05:20 1017 30.03 846 24.98 -11.3 11.7 81 -14 6.9
05:25 1017 30.03 846 24.98 -11.2 11.8 81 -13.8 7.1
05:30 1017 30.03 846 24.98 -11.1 12.1 80 -13.8 7.1
05:35 1017 30.03 846 24.98 -10.9 12.3 79 -13.9 7
05:40 1017 30.03 846 24.98 -11.3 11.6 81 -13.9 6.9
05:45 1017 30.03 846 24.98 -11.2 11.9 81 -13.9 7.1
05:50 1017 30.03 846 24.98 -10.4 13.2 78 -13.6 7.5
05:55 1017 30.03 846 24.98 -10 14.1 76 -13.5 7.8
06:00 1017 30.03 846 24.98 -10 14.1 76 -13.4 7.9
06:05 1017 30.03 846 24.98 -10.4 13.4 77 -13.6 7.5
06:10 1017 30.03 846 24.98 -10.5 13.2 77 -13.7 7.3
06:15 1017 30.03 846 24.98 -10.5 13.1 78 -13.6 7.5
06:20 1017 30.03 846 24.98 -10.4 13.2 78 -13.6 7.5
06:25 1017 30.03 846 24.98 -10.7 12.8 80 -13.5 7.7
06:30 1017 30.03 846 24.98 -10.7 12.7 79 -13.7 7.4
06:35 1017 30.03 846 24.98 -10.9 12.4 79 -13.8 7.1
06:40 1017 30.03 846 24.98 -11.1 12.1 79 -14 6.9
06:45 1017 30.03 846 24.98 -11.1 12.1 80 -13.9 6.9
06:50 1017 30.03 846 24.98 -11 12.3 78 -14 6.7
06:55 1017 30.03 846 24.98 -11 12.2 80 -13.8 7.1
07:00 1017 30.03 846 24.98 -10.9 12.3 80 -13.8 7.2
07:05 1017 30.03 846 24.98 -10.5 13.2 79 -13.5 7.7
07:10 1017 30.03 846 24.98 -10.5 13.1 78 -13.6 7.5
07:15 1017 30.03 846 24.98 -10.7 12.8 80 -13.4 7.8
07:20 1016 30 846 24.98 -10.6 13 79 -13.6 7.5
07:25 1016 30 846 24.98 -10.4 13.3 77 -13.7 7.4
07:30 1016 30 846 24.98 -10.3 13.5 78 -13.4 7.9
07:35 1016 30 846 24.98 -10.5 13 79 -13.5 7.6
07:40 1016 30 846 24.98 -10.8 12.5 80 -13.7 7.3
07:45 1016 30 846 24.98 -10.8 12.5 79 -13.7 7.3
07:50 1016 30 846 24.98 -10.7 12.8 78 -13.9 7
07:55 1016 30 846 24.98 -10.3 13.5 77 -13.6 7.5
08:00 1016 30 845 24.95 -10.2 13.6 77 -13.6 7.6
08:05 1016 30 845 24.95 -10.1 13.8 75 -13.7 7.3
08:10 1016 30 845 24.95 -9.5 14.9 71 -13.9 7.1
08:15 1016 30 846 24.98 -9.2 15.5 70 -13.6 7.5
08:20 1016 30 846 24.98 -9.2 15.5 70 -13.6 7.5
08:25 1016 30 846 24.98 -9.3 15.3 71 -13.7 7.4
08:30 1016 30 846 24.98 -9.4 15.1 71 -13.7 7.4
08:35 1016 30 846 24.98 -9.5 14.9 71 -13.8 7.1
08:40 1016 30 846 24.98 -9.5 14.9 71 -13.8 7.2
08:45 1016 30 846 24.98 -9.1 15.6 67 -14.2 6.4
08:50 1016 30 846 24.98 -9.5 14.9 70 -14 6.8
08:55 1017 30.03 846 24.98 -9.7 14.5 72 -14 6.9
09:00 1017 30.03 846 24.98 -9.7 14.5 71 -14.1 6.6
09:05 1017 30.03 846 24.98 -9 15.8 67 -14.1 6.6
09:10 1017 30.03 846 24.98 -8.6 16.5 68 -13.5 7.8
09:15 1017 30.03 846 24.98 -8.8 16.2 68 -13.6 7.6
09:20 1017 30.03 846 24.98 -7.8 18 63 -13.8 7.2
09:25 1017 30.03 846 24.98 -7.6 18.3 64 -13.4 7.9
09:30 1017 30.03 846 24.98 -7.4 18.6 63 -13.4 7.9
09:35 1017 30.03 846 24.98 -7.4 18.6 63 -13.3 8.1
09:40 1017 30.03 846 24.98 -7.4 18.6 62 -13.4 7.8
09:45 1017 30.03 846 24.98 -7.2 19 62 -13.4 7.8
09:50 1017 30.03 846 24.98 -6.7 20 59 -13.5 7.7
09:55 1017 30.03 846 24.98 -6.7 20 60 -13.2 8.3
10:00 1017 30.03 846 24.98 -7.2 19 62 -13.2 8.2
10:05 1017 30.03 846 24.98 -7.6 18.2 64 -13.3 8
10:10 1017 30.03 846 24.98 -7.7 18.1 64 -13.3 8
10:15 1017 30.03 846 24.98 -7.6 18.2 64 -13.3 8
10:20 1017 30.03 846 24.98 -7.3 18.9 63 -13.2 8.3
10:25 1017 30.03 846 24.98 -7.1 19.2 61 -13.4 7.9
10:30 1017 30.03 846 24.98 -7.3 18.9 62 -13.4 7.9
10:35 1017 30.03 846 24.98 -7.2 19.1 63 -13 8.5
10:40 1017 30.03 846 24.98 -7.1 19.2 63 -13.1 8.5
10:45 1017 30.03 846 24.98 -7 19.4 62 -13.2 8.2
10:50 1017 30.03 846 24.98 -7.3 18.9 64 -13 8.5
10:55 1017 30.03 846 24.98 -7.8 18 67 -12.8 8.9
11:00 1017 30.03 846 24.98 -8 17.7 67 -13.1 8.4
11:05 1017 30.03 846 24.98 -7.5 18.6 63 -13.3 8.1
11:10 1017 30.03 846 24.98 -6.6 20.2 59 -13.3 8
11:15 1017 30.03 846 24.98 -6.3 20.7 58 -13.2 8.2
11:20 1017 30.03 846 24.98 -6.4 20.4 60 -13 8.7
11:25 1017 30.03 846 24.98 -6.4 20.5 58 -13.3 8
11:30 1017 30.03 846 24.98 -6.4 20.5 59 -13.2 8.2
11:35 1017 30.03 846 24.98 -6.2 20.9 59 -12.9 8.7
11:40 1017 30.03 846 24.98 -6.4 20.5 58 -13.4 7.9
11:45 1017 30.03 846 24.98 -6.6 20.2 59 -13.4 7.9
11:50 1017 30.03 846 24.98 -6 21.2 55 -13.6 7.6
11:55 1017 30.03 846 24.98 -5.9 21.3 55 -13.6 7.6
12:00 1017 30.03 846 24.98 -6.1 20.9 58 -13.2 8.2
12:05 1017 30.03 846 24.98 -6 21.1 56 -13.4 7.8
12:10 1017 30.03 846 24.98 -6.6 20.2 60 -13.2 8.2
12:15 1017 30.03 846 24.98 -6.4 20.5 58 -13.5 7.7
12:20 1016 30 846 24.98 -6.1 21 57 -13.2 8.2
12:25 1016 30 846 24.98 -6.1 21 59 -13 8.6
12:30 1016 30 846 24.98 -6 21.2 57 -13.3 8.1
12:35 1016 30 846 24.98 -5.7 21.7 54 -13.5 7.6
12:40 1016 30 845 24.95 -5.5 22.1 54 -13.4 7.8
12:45 1016 30 845 24.95 -5.2 22.7 54 -13.1 8.4
12:50 1016 30 845 24.95 -5.4 22.3 55 -13 8.6
12:55 1016 30 845 24.95 -5.6 21.9 56 -13.1 8.4
13:00 1016 30 845 24.95 -5.5 22.1 55 -13.2 8.2
13:05 1016 30 845 24.95 -5.4 22.3 55 -13.1 8.4
13:10 1016 30 845 24.95 -5.4 22.3 54 -13.3 8
13:15 1016 30 845 24.95 -5.5 22.1 55 -13.1 8.4
13:20 1016 30 845 24.95 -5.7 21.8 57 -12.8 8.9
13:25 1016 30 845 24.95 -6.5 20.3 61 -12.9 8.8
13:30 1016 30 845 24.95 -6.5 20.4 58 -13.4 7.8
13:35 1016 30 845 24.95 -6.3 20.6 58 -13.3 8.1
13:40 1016 30 845 24.95 -5.9 21.4 56 -13.2 8.2
13:45 1016 30 845 24.95 -5.7 21.7 57 -12.9 8.8
13:50 1016 30 845 24.95 -5.6 21.9 58 -12.7 9.2
13:55 1016 30 845 24.95 -4.9 23.1 55 -12.6 9.2
14:00 1016 30 845 24.95 -4.7 23.5 54 -12.7 9.2
14:05 1016 30 845 24.95 -5.1 22.9 57 -12.4 9.7
14:10 1016 30 845 24.95 -5.1 22.9 55 -12.7 9.1
14:15 1016 30 845 24.95 -5.1 22.9 56 -12.6 9.2
14:20 1016 30 845 24.95 -5.3 22.5 56 -12.7 9.1
14:25 1016 30 845 24.95 -6.1 21 59 -13 8.6
14:30 1016 30 845 24.95 -6.3 20.6 60 -12.9 8.8
14:35 1016 30 845 24.95 -6.3 20.6 61 -12.7 9.2
14:40 1016 30 845 24.95 -6.2 20.8 59 -13 8.7
14:45 1016 30 845 24.95 -6.3 20.7 58 -13.3 8.1
14:50 1016 30 845 24.95 -6.5 20.2 58 -13.6 7.6
14:55 1016 30 845 24.95 -6.4 20.5 60 -13 8.6
15:00 1016 30 845 24.95 -5.6 21.8 58 -12.7 9.1
15:05 1016 30 845 24.95 -5.2 22.7 58 -12.2 10
15:10 1016 30 845 24.95 -5.2 22.6 58 -12.2 10
15:15 1016 30 845 24.95 -5.1 22.8 56 -12.6 9.3
15:20 1016 30 845 24.95 -5.2 22.7 57 -12.5 9.6
15:25 1016 30 845 24.95 -5.2 22.7 56 -12.7 9.1
15:30 1016 30 845 24.95 -5.3 22.4 58 -12.4 9.7
15:35 1016 30 845 24.95 -5.7 21.7 60 -12.3 9.9
15:40 1016 30 845 24.95 -5.8 21.5 61 -12.2 10
15:45 1016 30 845 24.95 -5.6 22 59 -12.4 9.6
15:50 1016 30 845 24.95 -5.1 22.8 58 -12.1 10.2
15:55 1016 30 845 24.95 -4.7 23.6 54 -12.5 9.5
16:00 1016 30 845 24.95 -4.1 24.5 54 -12.2 10
16:05 1016 30 845 24.95 -4.4 24 54 -12.4 9.7
16:10 1016 30 845 24.95 -4.7 23.6 54 -12.6 9.3
16:15 1016 30 845 24.95 -5.1 22.9 56 -12.7 9.2
16:20 1016 30 845 24.95 -5.2 22.7 58 -12.3 9.9
16:25 1016 30 845 24.95 -5.4 22.3 62 -11.6 11.2
16:30 1016 30 845 24.95 -5.3 22.4 62 -11.6 11.2
16:35 1016 30 845 24.95 -5.3 22.5 61 -11.6 11.1
16:40 1016 30 845 24.95 -5.2 22.7 60 -11.7 11
16:45 1016 30 845 24.95 -5.3 22.5 64 -11.1 12
16:50 1016 30 845 24.95 -5.3 22.4 61 -11.7 11
16:55 1016 30 845 24.95 -5.4 22.2 62 -11.6 11.1
17:00 1016 30 845 24.95 -5.5 22.1 62 -11.6 11.1
17:05 1016 30 845 24.95 -5.4 22.2 64 -11.3 11.6
17:10 1016 30 845 24.95 -5.3 22.4 64 -11.1 11.9
17:15 1016 30 845 24.95 -5.3 22.5 64 -11.2 11.9
17:20 1016 30 845 24.95 -4.9 23.2 63 -10.8 12.6
17:25 1016 30 845 24.95 -4.6 23.7 63 -10.7 12.8
17:30 1016 30 845 24.95 -4.4 24.1 58 -11.5 11.3
17:35 1016 30 845 24.95 -4 24.8 61 -10.4 13.3
17:40 1016 30 845 24.95 -4.2 24.5 59 -11.1 12
17:45 1016 30 845 24.95 -4 24.7 58 -11.2 11.9
17:50 1016 30 845 24.95 -4.1 24.6 60 -10.7 12.8
17:55 1016 30 845 24.95 -4.3 24.3 62 -10.4 13.2
18:00 1016 30 845 24.95 -4.3 24.2 60 -11 12.1
18:05 1016 30 845 24.95 -4.1 24.6 61 -10.5 13
18:10 1016 30 845 24.95 -4.1 24.6 62 -10.4 13.2
18:15 1016 30 845 24.95 -4 24.8 62 -10.3 13.4
18:20 1016 30 845 24.95 -4.3 24.2 66 -9.7 14.5
18:25 1016 30 845 24.95 -5.1 22.8 70 -9.8 14.4
18:30 1016 30 845 24.95 -5.1 22.8 70 -9.8 14.3
18:35 1016 30 845 24.95 -4.7 23.6 70 -9.3 15.2
18:40 1016 30 845 24.95 -4.6 23.8 74 -8.5 16.7
18:45 1016 30 845 24.95 -5.1 22.8 77 -8.5 16.7
18:50 1016 30 845 24.95 -5.2 22.6 81 -8 17.7
18:55 1016 30 845 24.95 -5.4 22.3 84 -7.7 18.2
19:00 1016 30 845 24.95 -5.3 22.4 86 -7.3 18.9
19:05 1016 30 845 24.95 -5.3 22.5 89 -6.8 19.7
19:10 1016 30 845 24.95 -5.1 22.8 91 -6.4 20.5
19:15 1016 30 845 24.95 -4.9 23.1 92 -6.1 21.1
19:20 1016 30 845 24.95 -4.7 23.5 93 -5.6 21.9
19:25 1016 30 845 24.95 -4.4 24.1 93 -5.4 22.3
19:30 1016 30 845 24.95 -4.4 24.1 93 -5.4 22.3
19:35 1016 30 846 24.98 -4.5 23.9 92 -5.7 21.8
19:40 1016 30 846 24.98 -4.7 23.6 92 -5.8 21.5
19:45 1016 30 846 24.98 -4.6 23.6 92 -5.7 21.7
19:50 1016 30 846 24.98 -4.5 23.8 91 -5.7 21.7
19:55 1016 30 846 24.98 -4.5 23.9 92 -5.6 22
20:00 1016 30 846 24.98 -4.2 24.5 91 -5.4 22.3
20:05 1016 30 846 24.98 -3.9 24.9 91 -5.2 22.6
20:10 1016 30 846 24.98 -3.8 25.2 89 -5.3 22.4
20:15 1016 30 846 24.98 -3.6 25.5 88 -5.3 22.4
20:20 1016 30 846 24.98 -3.6 25.6 88 -5.3 22.5
20:25 1016 30 846 24.98 -3.7 25.4 89 -5.3 22.4
20:30 1016 30 846 24.98 -3.7 25.3 89 -5.2 22.6
20:35 1016 30 846 24.98 -3.7 25.4 89 -5.2 22.7
20:40 1016 30 846 24.98 -3.7 25.4 90 -5.2 22.7
20:45 1016 30 846 24.98 -3.8 25.2 90 -5.2 22.6
20:50 1016 30 845 24.95 -3.9 25 90 -5.3 22.4
20:55 1016 30 845 24.95 -4.2 24.5 91 -5.4 22.3
21:00 1016 30 845 24.95 -4.2 24.4 92 -5.4 22.3
21:05 1016 30 845 24.95 -4.1 24.6 92 -5.2 22.7
21:10 1016 30 845 24.95 -3.9 24.9 92 -5.1 22.8
21:15 1016 30 845 24.95 -3.8 25.2 91 -5 22.9
21:20 1016 30 845 24.95 -3.6 25.5 91 -4.9 23.2
21:25 1016 30 845 24.95 -3.4 25.9 87 -5.2 22.7
21:30 1016 30 845 24.95 -3.3 26 86 -5.3 22.4
21:35 1016 30 845 24.95 -3.2 26.2 85 -5.4 22.3
21:40 1016 30 845 24.95 -3.2 26.2 85 -5.5 22.2
21:45 1016 30 845 24.95 -3.2 26.2 84 -5.5 22.1
21:50 1016 30 845 24.95 -3.3 26.1 84 -5.6 21.9
21:55 1016 30 845 24.95 -3.3 26.1 83 -5.8 21.6
22:00 1016 30 845 24.95 -3.2 26.2 83 -5.7 21.7
22:05 1016 30 846 24.98 -3.1 26.4 82 -5.8 21.6
22:10 1016 30 845 24.95 -3.1 26.5 82 -5.7 21.7
22:15 1016 30 845 24.95 -3.1 26.5 82 -5.8 21.6
22:20 1016 30 845 24.95 -3 26.6 80 -5.9 21.4
22:25 1016 30 845 24.95 -2.9 26.8 81 -5.7 21.7
22:30 1016 30 845 24.95 -3 26.6 82 -5.7 21.7
22:35 1016 30 846 24.98 -3 26.6 82 -5.7 21.7
22:40 1016 30 846 24.98 -3 26.6 82 -5.7 21.7
22:45 1016 30 846 24.98 -3 26.6 80 -6 21.3
22:50 1016 30 846 24.98 -2.9 26.7 80 -5.9 21.4
22:55 1016 30 846 24.98 -3 26.6 80 -6 21.3
23:00 1016 30 846 24.98 -3 26.6 80 -6 21.2
23:05 1016 30 846 24.98 -3 26.6 80 -6 21.2
23:10 1016 30 846 24.98 -3.1 26.4 80 -6 21.1
23:15 1017 30.03 846 24.98 -3.1 26.4 80 -6.2 20.9
23:20 1017 30.03 846 24.98 -3 26.6 78 -6.3 20.7
23:25 1017 30.03 846 24.98 -2.9 26.7 77 -6.4 20.5
23:30 1017 30.03 846 24.98 -3 26.6 79 -6.2 20.9
23:35 1017 30.03 846 24.98 -3 26.6 80 -6.1 21.1
23:40 1017 30.03 846 24.98 -3.2 26.3 80 -6.1 21
23:45 1017 30.03 846 24.98 -3.2 26.2 78 -6.5 20.2
23:50 1017 30.03 846 24.98 -3.3 26 76 -7 19.3
23:55 1017 30.03 846 24.98 -3.2 26.3 74 -7.2 19.1
24:00 1017 30.03 846 24.98 -2.8 26.9 72 -7.1 19.1